チタ の空港の天気 - METARとTAF

チタ・カダラ空港 ( UIAA / HTA ) - ロシア チタ
飛行場実況気象(Metar)
観測時間01/20 13:30 YAKT (01/20 04:30 UTC)
風向・風速不定 1m/s
視程10km以上
天気現象
なし
気温-28℃
湿度56%
気圧1023hPa
METARUIAA 200430Z VRB01MPS 9999 NSC M28/M34 Q1023 R29/810160 NOSIG RMK QFE708/0944
過去の天気等 Google飛行場航空写真 Wunderground天気予報

過去48時間のMETAR

飛行場予報(TAF)
発表時間: 1/20 11:00 YAKT (1/20 02:00 UTC)
予報対象時間: 20日12時 YAKT ~ 21日12時 YAKT
風向・風速西北西 3m/s
視程10km以上
なし
TAF UIAA 200200Z 2003/2103 30003MPS 9999 NSC